Redwood City, CA (94065)

4:25 AM PDT on July 06, 2015 (GMT -0700)
MorganHomes.com-Hallmark Park Area | | Change Station
CLOSE
Current Station
Personal Weather Station
Location: Belmont, CA
Elevation: 760 ft
Nearby Weather Stations

Elev 760 ft 37.52 °N, 122.26 °W | Updated 30 seconds ago

Overcast
Overcast
56.5 °F
Feels Like 56.5 °F
N
3.0
Wind Variable Wind from NW
Gusts 3.0 mph

Today
High -- | Low -- °F
--% Chance of Precip.
Yesterday
High -- | Low -- °F
Precip. -- in
5:53 AM 8:33 PM
Waning Gibbous, 76% visible
Pressure 30.04 in
Visibility 10.0 miles
Clouds Overcast 1800 ft
Dew Point 56 °F
Humidity 100%
Rainfall 0.00 in
Snow Depth Not available.
UV 0 out of 12
Pollen 3.20 out of 12
Air Quality Not available.
Flu Activity Not available.
METAR KSQL 061110Z AUTO 26007KT 10SM OVC018 17/13 A3004 RMK AO2

More Conditions Fewer Conditions

Pressure 30.04 in
Visibility 10.0 miles
Clouds Overcast 1800 ft
Dew Point 56 °F
Humidity 100%
Rainfall 0.00 in
Snow Depth Not available.
UV 0 out of 12
Pollen 3.20 out of 12
Air Quality Not available.
Flu Activity Not available.
METAR KSQL 061110Z AUTO 26007KT 10SM OVC018 17/13 A3004 RMK AO2

More Conditions Fewer Conditions

10-Day Weather Forecast

×

Almanac

Astronomy

Jul. 06, 2015 Rise Set
Actual Time
Civil Twilight
Nautical Twilight
Astronomical Twilight
Moon
Length of Visible Light
Length of Day
Tomorrow will be .
, % of the Moon is Illuminated

Today's Extremes

State Highs State Lows

Community

WunderPhotos

Upload Photos

1,835,535 photos uploaded!

WunderBlogs® & News

Nearby

Air Quality

  Air Quality AQ Index Pollutant
Not available.

Snow Depth

Station Depth Elevation

Earthquake Activity

City Distance Mag. Time & Date
Minimum magnitude displayed is 2.5.

Coastal Water Temperatures

Place Temperature

Stations

Nearby Weather Stations

Station Location Temp. Windchill Dew Point Humidity Wind Precip. Elev Updated Type